Time;durP1;ratioP1;P1;durP2;ratioP2;P2;SDS_P1;SDS_P2;PMS_P1;PMS_P2;Temp;Humidity;BMP_temperature;BMP_pressure;BME280_temperature;BME280_humidity;BME280_pressure;Samples;Min_cycle;Max_cycle;Signal;HPM_P1;HPM_P2
2022/06/12 00:01:20;;;;;;;4.53;4.22;;;17.00;99.90;;;;;;5092013;28;20195;-76
2022/06/12 00:03:49;;;;;;;4.65;4.25;;;17.00;99.90;;;;;;5089760;28;20696;-76
2022/06/12 00:06:17;;;;;;;3.88;3.67;;;17.00;99.90;;;;;;5093914;28;20190;-76
2022/06/12 00:08:42;;;;;;;3.72;3.42;;;16.90;99.90;;;;;;5096048;28;20209;-75
2022/06/12 00:11:10;;;;;;;4.47;4.18;;;16.80;99.90;;;;;;5089519;28;20665;-76
2022/06/12 00:13:59;;;;;;;4.65;4.28;;;16.80;99.90;;;;;;5086677;28;20253;-76
2022/06/12 00:16:26;;;;;;;4.20;3.90;;;16.70;99.90;;;;;;5086618;28;20194;-76
2022/06/12 00:18:52;;;;;;;6.72;3.65;;;16.60;99.90;;;;;;5093100;28;20434;-76
2022/06/12 00:21:19;;;;;;;7.28;4.10;;;16.60;99.90;;;;;;5091749;28;20195;-76
2022/06/12 00:23:51;;;;;;;4.05;3.75;;;16.50;99.90;;;;;;5090609;28;20195;-76
2022/06/12 00:26:29;;;;;;;4.18;3.78;;;16.40;99.90;;;;;;5094715;28;20174;-75
2022/06/12 00:29:11;;;;;;;3.65;3.35;;;16.40;99.90;;;;;;5090663;28;20736;-76
2022/06/12 00:31:43;;;;;;;3.72;3.53;;;16.30;99.90;;;;;;5092463;28;20217;-76
2022/06/12 00:34:11;;;;;;;5.03;3.75;;;16.20;99.90;;;;;;5081030;28;20650;-76
2022/06/12 00:36:37;;;;;;;5.72;3.55;;;16.20;99.90;;;;;;5079770;28;20600;-76
2022/06/12 00:39:04;;;;;;;4.57;3.75;;;16.20;99.90;;;;;;5084773;28;20187;-76
2022/06/12 00:41:31;;;;;;;3.80;3.60;;;16.30;99.90;;;;;;5080509;28;20611;-76
2022/06/12 00:43:56;;;;;;;3.75;3.45;;;16.30;99.90;;;;;;5082061;28;20633;-76
2022/06/12 00:46:37;;;;;;;4.50;4.10;;;16.30;99.90;;;;;;5085682;28;20171;-77
2022/06/12 00:49:10;;;;;;;4.30;3.92;;;16.20;99.90;;;;;;5081381;28;20175;-76
2022/06/12 00:51:36;;;;;;;4.03;3.67;;;16.20;99.90;;;;;;5079776;28;20190;-76
2022/06/12 00:54:03;;;;;;;3.70;3.50;;;16.20;99.90;;;;;;5081672;28;20186;-76
2022/06/12 00:56:35;;;;;;;4.40;4.07;;;16.20;99.90;;;;;;5083510;28;20170;-76
2022/06/12 00:59:12;;;;;;;4.03;3.72;;;16.20;99.90;;;;;;5077366;28;20215;-75
2022/06/12 01:01:42;;;;;;;3.90;3.60;;;16.20;99.90;;;;;;5081037;28;20186;-77
2022/06/12 01:06:56;;;;;;;3.90;3.60;;;16.10;99.90;;;;;;5096689;28;20704;-76
2022/06/12 01:09:25;;;;;;;3.97;3.67;;;16.10;99.90;;;;;;5094059;28;20622;-76
2022/06/12 01:11:53;;;;;;;4.07;3.78;;;16.00;99.90;;;;;;5096551;28;20208;-76
2022/06/12 01:14:23;;;;;;;3.90;3.70;;;16.00;99.90;;;;;;5096354;28;20216;-76
2022/06/12 01:16:50;;;;;;;4.20;3.90;;;15.90;99.90;;;;;;5100587;28;20213;-76
2022/06/12 01:19:28;;;;;;;4.13;3.90;;;15.80;99.90;;;;;;5097115;28;20213;-74
2022/06/12 01:22:13;;;;;;;4.03;3.78;;;15.70;99.90;;;;;;5093756;28;20198;-75
2022/06/12 01:25:17;;;;;;;4.28;3.88;;;15.60;99.90;;;;;;5064876;28;20194;-75
2022/06/12 01:28:11;;;;;;;5.00;4.40;;;15.60;99.90;;;;;;5090077;28;20202;-76
2022/06/12 01:30:49;;;;;;;4.10;3.83;;;15.70;99.90;;;;;;5095628;28;20170;-76
2022/06/12 01:33:27;;;;;;;4.95;4.55;;;15.60;99.90;;;;;;5096142;28;20197;-75
2022/06/12 01:36:04;;;;;;;7.18;5.00;;;15.50;99.90;;;;;;5091726;28;20182;-75
2022/06/12 01:39:13;;;;;;;5.13;4.75;;;15.40;99.90;;;;;;5098158;28;20169;-76
2022/06/12 01:41:51;;;;;;;4.10;3.80;;;15.40;99.90;;;;;;5045754;28;20748;-76
2022/06/12 01:44:49;;;;;;;5.30;4.00;;;15.40;99.90;;;;;;5097226;28;20231;-76
2022/06/12 01:47:32;;;;;;;4.00;3.70;;;15.40;99.90;;;;;;5089695;28;20178;-76
2022/06/12 01:50:10;;;;;;;4.22;3.90;;;15.50;99.90;;;;;;5097778;28;20207;-76
2022/06/12 01:52:46;;;;;;;4.75;4.43;;;15.40;99.90;;;;;;5087570;28;20325;-76
2022/06/12 01:55:33;;;;;;;4.28;3.88;;;15.30;99.90;;;;;;5086208;28;20177;-76
2022/06/12 01:58:14;;;;;;;4.38;4.07;;;15.20;99.90;;;;;;5087193;28;20171;-77
2022/06/12 02:00:45;;;;;;;4.15;3.85;;;15.30;99.90;;;;;;5091161;28;20653;-76
2022/06/12 02:03:24;;;;;;;4.22;3.92;;;15.20;99.90;;;;;;5098489;28;20223;-76
2022/06/12 02:06:04;;;;;;;4.40;4.10;;;15.10;99.90;;;;;;5085924;28;20200;-76
2022/06/12 02:08:51;;;;;;;4.68;4.38;;;15.00;99.90;;;;;;5087448;28;20683;-76
2022/06/12 02:14:15;;;;;;;4.40;4.10;;;15.00;99.90;;;;;;5091513;28;20193;-78
2022/06/12 02:16:45;;;;;;;5.03;3.72;;;15.00;99.90;;;;;;5088443;28;20179;-76
2022/06/12 02:19:21;;;;;;;4.18;3.83;;;15.00;99.90;;;;;;5101316;28;20587;-76
2022/06/12 02:21:49;;;;;;;3.67;3.47;;;15.10;99.90;;;;;;5091246;28;20202;-75
2022/06/12 02:24:21;;;;;;;3.75;3.45;;;15.10;99.90;;;;;;5092400;28;20185;-76
2022/06/12 02:26:59;;;;;;;4.30;3.90;;;15.10;99.90;;;;;;5093198;28;20174;-75
2022/06/12 02:29:32;;;;;;;4.07;3.70;;;15.10;99.90;;;;;;5091840;28;20197;-77
2022/06/12 02:32:01;;;;;;;3.78;3.50;;;15.00;99.90;;;;;;5091671;28;20236;-76
2022/06/12 02:34:31;;;;;;;3.85;3.47;;;15.10;99.90;;;;;;5089073;28;20174;-76
2022/06/12 02:37:13;;;;;;;4.30;4.00;;;14.90;99.90;;;;;;5099777;28;20190;-77
2022/06/12 02:39:43;;;;;;;4.15;3.95;;;14.90;99.90;;;;;;5094678;28;20171;-77
2022/06/12 02:42:15;;;;;;;4.28;3.97;;;14.90;99.90;;;;;;5098287;28;20205;-77
2022/06/12 02:45:08;;;;;;;4.35;4.03;;;14.90;99.90;;;;;;5098068;28;20660;-76
2022/06/12 02:47:37;;;;;;;4.40;4.03;;;14.80;99.90;;;;;;5096775;28;20235;-76
2022/06/12 02:50:05;;;;;;;5.05;3.88;;;14.70;99.90;;;;;;5095783;28;20178;-76
2022/06/12 02:52:42;;;;;;;3.67;3.38;;;14.70;99.90;;;;;;5093837;28;20209;-75
2022/06/12 02:55:17;;;;;;;4.20;3.70;;;14.80;99.90;;;;;;5098608;28;20180;-75
2022/06/12 02:57:51;;;;;;;4.13;3.83;;;14.80;99.90;;;;;;5091926;28;20198;-75
2022/06/12 03:00:41;;;;;;;4.22;3.80;;;14.80;99.90;;;;;;5092948;28;20177;-76
2022/06/12 03:03:25;;;;;;;5.70;4.05;;;14.80;99.90;;;;;;5081859;28;20189;-76
2022/06/12 03:05:54;;;;;;;4.72;4.30;;;14.90;99.90;;;;;;5096720;28;20232;-76
2022/06/12 03:08:23;;;;;;;4.22;3.88;;;14.80;99.90;;;;;;5090208;28;20170;-75
2022/06/12 03:10:54;;;;;;;7.00;4.63;;;14.80;99.90;;;;;;5094038;28;20283;-75
2022/06/12 03:13:21;;;;;;;5.32;4.82;;;14.80;99.90;;;;;;5090520;28;20275;-76
2022/06/12 03:15:52;;;;;;;5.00;4.50;;;14.70;99.90;;;;;;5099436;28;20568;-75
2022/06/12 03:18:28;;;;;;;4.82;4.53;;;14.60;99.90;;;;;;5109770;28;20227;-76
2022/06/12 03:21:29;;;;;;;5.10;4.70;;;14.60;99.90;;;;;;5092627;28;20281;-76
2022/06/12 03:24:24;;;;;;;5.07;4.65;;;14.60;99.90;;;;;;5094363;28;20171;-76
2022/06/12 03:27:11;;;;;;;5.57;4.30;;;14.60;99.90;;;;;;5091870;28;20684;-76
2022/06/12 03:29:54;;;;;;;4.40;4.10;;;14.50;99.90;;;;;;5085559;28;20594;-75
2022/06/12 03:32:49;;;;;;;5.68;4.55;;;14.60;99.90;;;;;;5088352;28;20213;-75
2022/06/12 03:35:35;;;;;;;4.55;4.20;;;14.50;99.90;;;;;;5089925;28;20190;-75
2022/06/12 03:38:23;;;;;;;6.57;4.57;;;14.50;99.90;;;;;;5089029;28;20192;-77
2022/06/12 03:41:18;;;;;;;5.47;4.57;;;14.50;99.90;;;;;;5085732;28;20210;-76
2022/06/12 03:44:34;;;;;;;4.88;4.38;;;14.40;99.90;;;;;;5085842;28;20271;-77
2022/06/12 03:47:23;;;;;;;5.05;4.60;;;14.30;99.90;;;;;;5015501;28;20189;-76
2022/06/12 03:50:01;;;;;;;6.38;3.78;;;14.30;99.90;;;;;;5099058;28;20179;-76
2022/06/12 03:52:40;;;;;;;4.75;4.15;;;14.40;99.90;;;;;;5093694;28;20214;-77
2022/06/12 03:55:17;;;;;;;3.88;3.67;;;14.40;99.90;;;;;;5092147;28;20166;-76
2022/06/12 03:57:54;;;;;;;4.35;4.05;;;14.50;99.90;;;;;;5090201;28;20257;-76
2022/06/12 04:00:34;;;;;;;7.05;4.05;;;14.50;99.90;;;;;;5087716;28;20213;-76
2022/06/12 04:03:10;;;;;;;4.35;4.00;;;14.60;99.90;;;;;;5099383;28;20178;-76
2022/06/12 04:05:38;;;;;;;4.00;3.70;;;14.70;99.90;;;;;;5108529;28;20227;-78
2022/06/12 04:08:06;;;;;;;4.10;3.65;;;14.70;99.90;;;;;;5100492;28;20190;-78
2022/06/12 04:10:36;;;;;;;4.22;3.92;;;14.70;99.90;;;;;;5084214;28;20654;-77
2022/06/12 04:13:05;;;;;;;3.78;3.40;;;14.80;99.90;;;;;;5096660;28;20685;-77
2022/06/12 04:16:01;;;;;;;4.97;3.95;;;14.80;99.90;;;;;;5092580;28;20197;-77
2022/06/12 04:18:28;;;;;;;4.22;3.80;;;14.90;99.90;;;;;;5103799;28;20190;-76
2022/06/12 04:20:58;;;;;;;3.88;3.67;;;15.00;99.90;;;;;;5102629;28;20208;-77
2022/06/12 04:23:49;;;;;;;4.10;3.80;;;15.00;99.90;;;;;;5094958;28;20186;-77
2022/06/12 04:26:15;;;;;;;4.28;3.92;;;15.10;99.90;;;;;;5097264;28;20208;-76
2022/06/12 04:28:43;;;;;;;4.93;4.32;;;15.20;99.90;;;;;;5103531;28;20665;-80
2022/06/12 04:31:14;;;;;;;4.68;4.28;;;15.20;99.90;;;;;;5102512;28;20215;-76
2022/06/12 04:33:52;;;;;;;4.85;4.45;;;15.30;99.90;;;;;;5092407;28;20225;-76
2022/06/12 04:36:18;;;;;;;5.65;5.22;;;15.30;99.90;;;;;;5091513;28;20175;-76
2022/06/12 04:38:43;;;;;;;5.20;4.85;;;15.40;99.90;;;;;;5100739;28;20542;-77
2022/06/12 04:41:18;;;;;;;4.88;4.43;;;15.50;99.90;;;;;;5105865;28;20190;-76
2022/06/12 04:43:43;;;;;;;4.70;4.30;;;15.50;99.90;;;;;;5095982;28;20256;-77
2022/06/12 04:46:10;;;;;;;4.60;4.20;;;15.60;99.90;;;;;;5102668;28;20263;-77
2022/06/12 04:48:45;;;;;;;4.85;4.30;;;15.70;99.90;;;;;;5090134;28;20187;-76
2022/06/12 04:51:12;;;;;;;4.35;3.95;;;15.70;99.90;;;;;;5091518;28;20201;-75
2022/06/12 04:53:39;;;;;;;4.95;4.55;;;15.80;99.90;;;;;;5091517;28;20186;-76
2022/06/12 04:56:06;;;;;;;4.70;4.30;;;15.90;99.90;;;;;;5089904;28;20198;-75
2022/06/12 04:58:31;;;;;;;4.10;3.90;;;16.00;99.90;;;;;;5097171;28;20220;-76
2022/06/12 05:00:57;;;;;;;4.70;4.30;;;16.00;99.90;;;;;;5099572;28;20198;-75
2022/06/12 05:03:23;;;;;;;4.75;4.22;;;16.10;99.90;;;;;;5094083;28;20182;-75
2022/06/12 05:05:49;;;;;;;3.97;3.67;;;16.20;99.90;;;;;;5087848;28;20257;-75
2022/06/12 05:08:17;;;;;;;5.22;4.68;;;16.30;99.90;;;;;;5083892;28;20180;-76
2022/06/12 05:10:43;;;;;;;4.55;4.15;;;16.40;99.90;;;;;;5092257;28;20525;-76
2022/06/12 05:13:08;;;;;;;4.13;3.80;;;16.40;99.90;;;;;;5087404;28;20198;-75
2022/06/12 05:15:34;;;;;;;4.70;4.38;;;16.60;99.90;;;;;;5091653;28;20647;-76
2022/06/12 05:18:00;;;;;;;5.13;4.70;;;16.70;99.90;;;;;;5088773;28;20190;-77
2022/06/12 05:20:29;;;;;;;5.03;4.63;;;16.80;99.90;;;;;;5087951;28;20258;-76
2022/06/12 05:22:55;;;;;;;5.10;4.60;;;17.00;99.90;;;;;;5095003;28;20318;-76
2022/06/12 05:25:23;;;;;;;5.45;5.05;;;17.10;99.90;;;;;;5097245;28;20649;-77
2022/06/12 05:27:49;;;;;;;5.20;4.68;;;17.10;99.90;;;;;;5099365;28;20590;-76
2022/06/12 05:30:20;;;;;;;4.75;4.32;;;17.20;99.90;;;;;;5105022;28;20270;-75
2022/06/12 05:32:48;;;;;;;6.93;5.72;;;17.30;99.90;;;;;;5095258;28;20213;-76
2022/06/12 05:35:15;;;;;;;6.13;4.97;;;17.30;99.90;;;;;;5093532;28;20200;-77
2022/06/12 05:37:40;;;;;;;5.20;4.80;;;17.40;99.90;;;;;;5100291;28;20181;-75
2022/06/12 05:40:10;;;;;;;5.15;4.70;;;17.50;99.90;;;;;;5102616;28;20170;-74
2022/06/12 05:42:37;;;;;;;5.82;5.43;;;17.60;99.90;;;;;;5089271;28;20290;-76
2022/06/12 05:45:06;;;;;;;5.40;5.00;;;17.70;99.90;;;;;;5090756;28;20185;-74
2022/06/12 05:47:32;;;;;;;5.57;5.05;;;17.80;99.90;;;;;;5095901;28;20299;-75
2022/06/12 05:49:58;;;;;;;6.68;5.20;;;17.80;99.90;;;;;;5098035;28;20660;-76
2022/06/12 05:52:24;;;;;;;5.43;5.03;;;18.00;99.90;;;;;;5091350;28;20214;-75
2022/06/12 05:54:49;;;;;;;5.35;4.90;;;18.10;99.90;;;;;;5088388;28;22569;-77
2022/06/12 05:57:15;;;;;;;6.93;5.25;;;18.20;99.90;;;;;;5088217;28;20181;-77
2022/06/12 05:59:41;;;;;;;6.25;5.20;;;18.20;99.90;;;;;;5085964;28;20666;-77
2022/06/12 06:02:06;;;;;;;5.97;5.32;;;18.30;99.90;;;;;;5083291;28;20712;-76
2022/06/12 06:04:33;;;;;;;7.25;5.82;;;18.40;99.90;;;;;;5081751;28;20612;-76
2022/06/12 06:06:59;;;;;;;5.32;4.85;;;18.50;99.90;;;;;;5084526;28;20182;-77
2022/06/12 06:09:27;;;;;;;5.65;5.18;;;18.60;99.90;;;;;;5096806;28;20190;-78
2022/06/12 06:11:54;;;;;;;7.13;5.13;;;18.70;99.90;;;;;;5100506;28;20198;-78
2022/06/12 06:14:19;;;;;;;4.97;4.57;;;18.80;99.90;;;;;;5096769;28;20205;-77
2022/06/12 06:16:45;;;;;;;5.55;4.75;;;18.90;99.90;;;;;;5101722;28;20198;-76
2022/06/12 06:19:13;;;;;;;5.07;4.40;;;19.00;99.90;;;;;;5090378;28;20175;-77
2022/06/12 06:21:40;;;;;;;7.05;4.43;;;19.10;99.90;;;;;;5100469;28;20282;-74
2022/06/12 06:24:09;;;;;;;5.22;4.78;;;19.20;99.90;;;;;;5086181;28;20174;-74
2022/06/12 06:26:35;;;;;;;6.55;4.90;;;19.20;99.90;;;;;;5091282;28;20197;-75
2022/06/12 06:29:01;;;;;;;5.20;4.53;;;19.40;99.90;;;;;;5090729;28;20195;-75
2022/06/12 06:31:27;;;;;;;5.40;4.53;;;19.40;99.90;;;;;;5084457;28;20785;-76
2022/06/12 06:33:54;;;;;;;6.00;4.30;;;19.50;99.90;;;;;;5085188;28;20266;-76
2022/06/12 06:36:20;;;;;;;5.25;4.85;;;19.60;99.90;;;;;;5090149;28;20185;-76
2022/06/12 06:38:53;;;;;;;5.90;5.28;;;19.70;99.90;;;;;;5088535;28;20178;-76
2022/06/12 06:41:19;;;;;;;4.78;4.38;;;19.80;99.90;;;;;;5088656;28;20293;-75
2022/06/12 06:46:28;;;;;;;5.50;4.70;;;20.00;99.90;;;;;;5094162;28;20193;-76
2022/06/12 06:48:54;;;;;;;4.70;4.30;;;20.10;99.90;;;;;;5101312;28;20186;-75
2022/06/12 06:51:20;;;;;;;6.30;5.00;;;20.20;99.90;;;;;;5093516;28;20264;-75
2022/06/12 06:53:46;;;;;;;7.13;4.82;;;20.30;99.90;;;;;;5087744;28;20231;-74
2022/06/12 06:56:12;;;;;;;5.10;4.70;;;20.30;99.90;;;;;;5090834;28;20178;-75
2022/06/12 06:58:37;;;;;;;5.40;4.32;;;20.40;99.90;;;;;;5089290;28;20196;-74
2022/06/12 07:01:04;;;;;;;4.80;4.30;;;20.40;99.90;;;;;;5097022;28;20272;-75
2022/06/12 07:03:30;;;;;;;4.90;4.50;;;20.50;99.90;;;;;;5087999;28;20189;-74
2022/06/12 07:05:57;;;;;;;4.40;4.10;;;20.60;99.90;;;;;;5083655;28;21743;-73
2022/06/12 07:08:25;;;;;;;4.68;4.28;;;20.70;99.90;;;;;;5087265;28;20214;-74
2022/06/12 07:10:52;;;;;;;5.28;4.72;;;20.70;99.90;;;;;;5093317;28;20573;-73
2022/06/12 07:13:18;;;;;;;4.30;3.97;;;20.90;99.90;;;;;;5092517;28;20289;-74
2022/06/12 07:15:44;;;;;;;5.10;4.68;;;21.10;99.90;;;;;;5102809;28;20716;-73
2022/06/12 07:18:11;;;;;;;4.40;4.10;;;21.20;99.90;;;;;;5096550;28;20190;-74
2022/06/12 07:20:40;;;;;;;4.93;4.50;;;21.20;99.90;;;;;;5095458;28;20179;-74
2022/06/12 07:23:08;;;;;;;4.80;4.13;;;21.20;99.90;;;;;;5090703;28;20187;-74
2022/06/12 07:25:39;;;;;;;4.90;4.18;;;21.30;99.90;;;;;;5099028;28;20187;-73
2022/06/12 07:28:05;;;;;;;5.60;4.30;;;21.40;99.90;;;;;;5099710;28;20186;-74
2022/06/12 07:30:31;;;;;;;4.65;4.32;;;21.50;99.90;;;;;;5091356;28;20221;-73
2022/06/12 07:32:56;;;;;;;5.85;4.32;;;21.60;99.90;;;;;;5098918;28;20202;-72
2022/06/12 07:35:22;;;;;;;4.25;3.88;;;21.70;99.90;;;;;;5097679;28;20269;-72
2022/06/12 07:37:48;;;;;;;4.53;4.13;;;21.90;99.90;;;;;;5098214;28;20264;-73
2022/06/12 07:40:18;;;;;;;3.83;3.53;;;22.00;99.90;;;;;;5095069;28;20645;-72
2022/06/12 07:42:44;;;;;;;3.92;3.53;;;22.10;99.90;;;;;;5104305;28;20279;-73
2022/06/12 07:45:10;;;;;;;4.55;4.15;;;22.20;99.90;;;;;;5106985;28;20214;-73
2022/06/12 07:47:36;;;;;;;4.70;4.28;;;22.30;99.90;;;;;;5097219;28;20198;-74
2022/06/12 07:50:02;;;;;;;4.25;3.95;;;22.40;99.90;;;;;;5101203;28;20178;-72
2022/06/12 07:52:27;;;;;;;3.47;3.28;;;22.50;99.90;;;;;;5095419;28;20214;-73
2022/06/12 07:54:55;;;;;;;4.22;3.83;;;22.60;99.90;;;;;;5096290;28;20162;-73
2022/06/12 07:57:20;;;;;;;4.80;3.97;;;22.60;99.90;;;;;;5099361;28;20232;-74
2022/06/12 07:59:46;;;;;;;4.25;3.97;;;22.70;99.90;;;;;;5102318;28;20574;-74
2022/06/12 08:02:12;;;;;;;3.97;3.67;;;22.80;99.90;;;;;;5096178;28;20241;-74
2022/06/12 08:04:38;;;;;;;4.07;3.20;;;22.90;99.90;;;;;;5090354;28;20265;-74
2022/06/12 08:07:04;;;;;;;4.07;3.25;;;22.90;99.90;;;;;;5102734;28;20186;-73
2022/06/12 08:09:30;;;;;;;4.05;3.75;;;23.00;99.90;;;;;;5099094;28;20175;-74
2022/06/12 08:11:56;;;;;;;3.83;3.20;;;23.20;99.90;;;;;;5101419;28;20206;-72
2022/06/12 08:14:23;;;;;;;3.95;3.65;;;23.30;99.90;;;;;;5097710;27;20178;-74
2022/06/12 08:16:48;;;;;;;3.72;3.53;;;23.30;99.90;;;;;;5096793;28;20179;-74
2022/06/12 08:22:01;;;;;;;3.20;3.00;;;23.50;99.90;;;;;;5102078;28;20208;-73
2022/06/12 08:24:27;;;;;;;4.07;3.72;;;23.60;99.90;;;;;;5102962;28;20193;-74
2022/06/12 08:26:53;;;;;;;4.80;3.47;;;23.70;99.90;;;;;;5102541;28;20229;-73
2022/06/12 08:29:19;;;;;;;3.08;2.95;;;23.80;99.90;;;;;;5094221;28;20198;-73
2022/06/12 08:31:49;;;;;;;3.78;3.00;;;24.00;99.90;;;;;;5089777;28;20194;-74
2022/06/12 08:34:22;;;;;;;3.17;2.97;;;24.20;99.90;;;;;;5104554;28;20170;-73
2022/06/12 08:36:52;;;;;;;3.70;3.40;;;24.30;99.90;;;;;;5101280;28;20581;-73
2022/06/12 08:39:18;;;;;;;3.65;3.33;;;24.40;99.90;;;;;;5096271;28;20178;-74
2022/06/12 08:42:07;;;;;;;4.57;3.50;;;24.50;99.90;;;;;;5095289;28;20715;-73
2022/06/12 08:44:51;;;;;;;4.07;3.08;;;24.60;99.90;;;;;;5091447;28;20182;-71
2022/06/12 08:47:27;;;;;;;3.10;2.90;;;24.80;99.90;;;;;;5102379;28;20174;-72
2022/06/12 08:50:02;;;;;;;3.47;2.95;;;24.90;99.90;;;;;;5105002;28;20227;-74
2022/06/12 08:52:44;;;;;;;3.78;3.25;;;25.00;99.90;;;;;;5094956;28;20293;-73
2022/06/12 08:55:45;;;;;;;3.83;3.40;;;25.00;99.90;;;;;;5097490;28;20173;-73
2022/06/12 08:58:37;;;;;;;3.50;3.20;;;24.90;99.90;;;;;;5094421;28;20216;-73
2022/06/12 09:01:03;;;;;;;3.10;2.90;;;24.90;99.90;;;;;;5104428;28;20197;-74
2022/06/12 09:03:35;;;;;;;3.30;3.10;;;25.00;99.90;;;;;;5099262;28;20583;-72
2022/06/12 09:06:39;;;;;;;2.72;2.63;;;25.10;99.90;;;;;;5085424;28;20193;-72
2022/06/12 09:09:20;;;;;;;14.55;2.80;;;25.40;99.90;;;;;;5094585;28;20182;-72
2022/06/12 09:12:03;;;;;;;3.30;2.50;;;25.60;99.90;;;;;;5098887;28;20194;-72
2022/06/12 09:14:53;;;;;;;2.88;2.50;;;25.80;99.90;;;;;;5095323;28;20187;-72
2022/06/12 09:17:34;;;;;;;2.42;2.33;;;26.00;99.90;;;;;;5091699;28;20179;-72
2022/06/12 09:20:30;;;;;;;2.70;2.35;;;26.20;99.90;;;;;;5101236;28;20175;-71
2022/06/12 09:23:14;;;;;;;2.70;2.60;;;26.30;99.90;;;;;;5105706;28;20186;-71
2022/06/12 09:26:17;;;;;;;2.28;2.17;;;26.50;99.90;;;;;;5103684;28;20643;-71
2022/06/12 09:29:15;;;;;;;5.75;2.67;;;26.70;99.90;;;;;;5097468;28;20202;-72
2022/06/12 09:31:52;;;;;;;2.50;2.30;;;27.00;99.90;;;;;;5068131;28;20215;-72
2022/06/12 09:35:02;;;;;;;2.10;2.05;;;27.20;99.90;;;;;;5094181;28;20642;-72
2022/06/12 09:38:21;;;;;;;2.80;2.38;;;27.90;99.30;;;;;;5088002;28;20589;-71
2022/06/12 09:41:07;;;;;;;2.25;2.15;;;29.90;95.20;;;;;;5092958;28;20179;-71
2022/06/12 09:43:45;;;;;;;3.42;1.70;;;32.90;82.50;;;;;;5104723;28;20250;-70
2022/06/12 09:46:28;;;;;;;2.15;1.30;;;34.60;59.80;;;;;;5093604;28;20182;-71
2022/06/12 09:48:57;;;;;;;1.30;1.30;;;36.60;50.10;;;;;;5102782;28;20262;-70
2022/06/12 09:51:41;;;;;;;1.08;1.08;;;37.40;47.10;;;;;;5098335;28;20660;-71
2022/06/12 09:54:51;;;;;;;3.92;1.25;;;38.40;45.00;;;;;;5092558;28;20245;-71
2022/06/12 09:57:43;;;;;;;1.13;1.13;;;39.60;43.30;;;;;;5058214;28;20182;-72
2022/06/12 10:00:21;;;;;;;1.80;1.27;;;40.60;42.10;;;;;;5092224;28;20181;-72
2022/06/12 10:03:08;;;;;;;1.20;1.20;;;41.20;40.80;;;;;;5096793;28;20193;-72
2022/06/12 10:05:45;;;;;;;1.10;1.10;;;42.10;39.00;;;;;;5099404;28;20174;-71
2022/06/12 10:08:20;;;;;;;1.08;1.08;;;42.60;38.00;;;;;;5091470;28;20720;-71
2022/06/12 10:10:52;;;;;;;1.10;1.10;;;43.50;35.70;;;;;;5095028;28;20545;-71
2022/06/12 10:13:24;;;;;;;1.38;1.33;;;42.50;36.10;;;;;;5099176;28;20564;-72
2022/06/12 10:15:57;;;;;;;1.45;1.45;;;40.60;37.40;;;;;;5095798;28;20175;-72
2022/06/12 10:18:36;;;;;;;14.52;1.70;;;40.50;38.30;;;;;;5088640;28;20579;-72
2022/06/12 10:21:15;;;;;;;1.20;1.20;;;40.60;37.10;;;;;;5099523;28;20185;-70
2022/06/12 10:23:40;;;;;;;1.35;1.20;;;40.00;38.20;;;;;;5087523;28;20174;-71
2022/06/12 10:26:26;;;;;;;1.20;1.20;;;41.00;38.00;;;;;;5092596;28;20248;-71
2022/06/12 10:29:07;;;;;;;2.05;1.17;;;41.70;37.90;;;;;;5096336;28;20280;-71
2022/06/12 10:31:44;;;;;;;1.02;1.02;;;42.50;37.20;;;;;;5098185;28;20262;-72
2022/06/12 10:34:22;;;;;;;1.20;1.17;;;43.10;35.60;;;;;;5091697;28;20208;-72
2022/06/12 10:36:48;;;;;;;1.60;1.30;;;43.60;35.70;;;;;;5090541;28;20645;-72
2022/06/12 10:39:17;;;;;;;2.05;1.73;;;43.60;34.80;;;;;;5099547;28;20172;-72
2022/06/12 10:42:01;;;;;;;1.77;1.67;;;43.10;35.70;;;;;;5093178;28;20197;-72
2022/06/12 10:44:33;;;;;;;1.65;1.63;;;41.00;36.90;;;;;;5107233;28;20177;-72
2022/06/12 10:47:21;;;;;;;1.45;1.42;;;41.10;38.40;;;;;;5102702;28;20821;-71
2022/06/12 10:50:07;;;;;;;3.33;1.45;;;41.20;37.70;;;;;;5101906;27;20197;-73
2022/06/12 10:52:34;;;;;;;1.10;1.10;;;41.40;40.00;;;;;;5075180;28;20218;-72
2022/06/12 10:55:00;;;;;;;1.45;1.35;;;41.80;36.50;;;;;;5088518;28;20261;-70
2022/06/12 10:57:50;;;;;;;1.40;1.40;;;41.70;37.00;;;;;;5097517;28;20181;-70
2022/06/12 11:00:20;;;;;;;1.52;1.50;;;40.60;37.30;;;;;;5088913;28;20526;-70
2022/06/12 11:02:59;;;;;;;1.50;1.40;;;40.60;38.10;;;;;;5085186;28;20213;-70
2022/06/12 11:05:28;;;;;;;1.58;1.48;;;41.00;38.10;;;;;;5093795;28;20177;-70
2022/06/12 11:08:21;;;;;;;1.42;1.42;;;41.50;37.20;;;;;;5097192;28;20169;-69
2022/06/12 11:10:53;;;;;;;1.60;1.50;;;41.40;37.20;;;;;;5094025;28;20170;-70
2022/06/12 11:13:43;;;;;;;1.25;1.25;;;41.90;36.40;;;;;;5091250;28;20688;-69
2022/06/12 11:16:15;;;;;;;1.63;1.52;;;41.40;36.50;;;;;;5091537;28;20174;-70
2022/06/12 11:18:41;;;;;;;1.20;1.20;;;40.90;39.60;;;;;;5097891;28;20173;-70
2022/06/12 11:21:22;;;;;;;1.40;1.30;;;41.90;36.20;;;;;;5097864;28;20193;-69
2022/06/12 11:24:02;;;;;;;1.38;1.38;;;42.50;36.00;;;;;;5096366;28;20174;-70
2022/06/12 11:26:52;;;;;;;1.60;1.50;;;42.30;35.90;;;;;;5092095;28;20269;-70
2022/06/12 11:29:46;;;;;;;1.65;1.55;;;42.40;36.70;;;;;;5089766;28;20668;-69
2022/06/12 11:32:11;;;;;;;1.27;1.27;;;42.50;37.80;;;;;;5086288;28;20199;-70
2022/06/12 11:34:58;;;;;;;1.45;1.35;;;43.20;35.80;;;;;;5093553;28;20173;-70
2022/06/12 11:37:34;;;;;;;3.55;1.40;;;43.50;36.10;;;;;;5090247;28;20182;-68
2022/06/12 11:40:17;;;;;;;1.70;1.55;;;44.00;34.70;;;;;;5091342;28;20204;-68
2022/06/12 11:42:43;;;;;;;1.45;1.35;;;43.30;34.50;;;;;;5102763;28;20279;-70
2022/06/12 11:45:33;;;;;;;1.38;1.27;;;42.90;34.60;;;;;;5095461;28;20699;-70
2022/06/12 11:48:21;;;;;;;1.45;1.33;;;40.40;37.20;;;;;;5094248;28;20245;-70
2022/06/12 11:51:05;;;;;;;1.50;1.40;;;38.70;38.60;;;;;;5097642;28;20439;-69
2022/06/12 11:53:49;;;;;;;1.40;1.40;;;38.40;39.30;;;;;;5099175;28;20568;-70
2022/06/12 11:56:59;;;;;;;1.38;1.30;;;38.80;38.30;;;;;;5091127;28;20170;-70
2022/06/12 11:59:49;;;;;;;1.40;1.30;;;39.00;38.80;;;;;;5086932;28;20793;-70
2022/06/12 12:02:23;;;;;;;1.55;1.45;;;38.90;40.30;;;;;;5088348;28;20201;-71
2022/06/12 12:04:52;;;;;;;1.52;1.27;;;39.50;38.50;;;;;;5091595;28;20547;-70
2022/06/12 12:07:32;;;;;;;1.95;1.40;;;40.70;38.60;;;;;;5099190;28;20178;-70
2022/06/12 12:10:21;;;;;;;1.30;1.30;;;40.70;38.00;;;;;;5102357;28;20173;-70
2022/06/12 12:13:09;;;;;;;1.17;1.17;;;39.50;40.10;;;;;;5096089;28;20699;-71
2022/06/12 12:16:01;;;;;;;1.65;1.10;;;40.10;38.10;;;;;;5089897;28;20190;-70
2022/06/12 12:18:35;;;;;;;1.85;1.50;;;40.30;38.50;;;;;;5087494;28;20223;-70
2022/06/12 12:21:06;;;;;;;1.23;1.23;;;40.90;38.00;;;;;;5097628;28;20525;-70
2022/06/12 12:23:38;;;;;;;1.30;1.30;;;42.20;35.70;;;;;;5093237;28;20256;-70
2022/06/12 12:26:28;;;;;;;1.10;1.10;;;42.50;35.80;;;;;;5094315;28;20204;-70
2022/06/12 12:29:00;;;;;;;1.33;1.30;;;42.10;35.20;;;;;;5090887;28;20209;-70
2022/06/12 12:31:27;;;;;;;1.38;1.38;;;42.40;36.20;;;;;;5095587;28;20208;-71
2022/06/12 12:33:55;;;;;;;1.10;1.10;;;43.40;34.40;;;;;;5096166;28;20239;-70
2022/06/12 12:42:27;;;;;;;1.40;1.30;;;44.10;35.10;;;;;;5091637;28;20769;-71
2022/06/12 12:44:54;;;;;;;1.10;1.10;;;46.50;32.80;;;;;;5109129;28;20233;-70
2022/06/12 12:47:22;;;;;;;1.77;1.10;;;48.40;31.10;;;;;;5093825;28;20182;-71
2022/06/12 12:49:48;;;;;;;1.20;1.10;;;49.80;29.90;;;;;;5101034;28;20170;-70
2022/06/12 12:52:17;;;;;;;1.40;1.30;;;48.50;29.90;;;;;;5096729;28;20193;-70
2022/06/12 12:54:48;;;;;;;1.92;1.30;;;48.30;30.20;;;;;;5097893;28;20181;-70
2022/06/12 12:57:17;;;;;;;1.30;1.30;;;48.90;31.10;;;;;;5094632;28;20174;-70
2022/06/12 12:59:44;;;;;;;1.20;1.20;;;51.20;30.00;;;;;;5100684;28;20253;-71
2022/06/12 13:02:39;;;;;;;1.17;1.10;;;53.90;28.30;;;;;;5099977;28;20194;-70
2022/06/12 13:05:39;;;;;;;1.00;0.90;;;55.50;27.20;;;;;;5092068;28;20173;-71
2022/06/12 13:08:20;;;;;;;2.63;1.33;;;55.90;27.10;;;;;;5101635;28;20169;-71
2022/06/12 13:10:49;;;;;;;1.50;1.45;;;54.00;26.90;;;;;;5097190;28;20173;-70
2022/06/12 13:13:29;;;;;;;1.40;1.30;;;50.80;28.00;;;;;;5089337;28;20198;-70
2022/06/12 13:16:08;;;;;;;1.92;1.15;;;47.70;29.90;;;;;;5106833;28;20180;-70
2022/06/12 13:18:44;;;;;;;1.27;0.95;;;47.40;31.50;;;;;;5087956;28;20177;-70
2022/06/12 13:21:24;;;;;;;1.15;1.10;;;49.70;29.60;;;;;;5093315;28;20216;-70
2022/06/12 13:24:41;;;;;;;1.40;1.30;;;51.50;28.60;;;;;;5092782;28;20174;-70
2022/06/12 13:27:26;;;;;;;1.90;1.23;;;53.20;27.80;;;;;;5090041;28;20189;-69
2022/06/12 13:29:54;;;;;;;1.13;1.13;;;56.20;26.70;;;;;;5099812;28;20633;-69
2022/06/12 13:32:33;;;;;;;1.05;1.00;;;58.50;25.80;;;;;;5096413;28;20681;-69
2022/06/12 13:35:06;;;;;;;1.10;1.10;;;58.50;25.50;;;;;;5095913;28;20218;-70
2022/06/12 13:37:36;;;;;;;1.00;1.00;;;58.60;26.00;;;;;;5097798;28;20245;-69
2022/06/12 13:40:20;;;;;;;1.67;1.15;;;59.80;25.80;;;;;;5099101;28;20557;-69
2022/06/12 13:42:46;;;;;;;0.90;0.90;;;61.70;24.50;;;;;;5108655;28;20201;-69
2022/06/12 13:45:19;;;;;;;1.00;0.95;;;62.20;24.70;;;;;;5095700;28;20574;-69